sensor_id;sensor_type;location;lat;lon;timestamp;P1;durP1;ratioP1;P2;durP2;ratioP2
54909;SDS011;63189;51.240;9.964;2023-02-28T00:02:15;2.78;;;1.00;;
54909;SDS011;63189;51.240;9.964;2023-02-28T00:04:42;3.50;;;1.45;;
54909;SDS011;63189;51.240;9.964;2023-02-28T00:07:08;2.88;;;1.02;;
54909;SDS011;63189;51.240;9.964;2023-02-28T00:09:34;2.80;;;1.10;;
54909;SDS011;63189;51.240;9.964;2023-02-28T00:11:59;2.42;;;1.10;;
54909;SDS011;63189;51.240;9.964;2023-02-28T00:14:25;1.92;;;1.00;;
54909;SDS011;63189;51.240;9.964;2023-02-28T00:16:50;2.58;;;1.30;;
54909;SDS011;63189;51.240;9.964;2023-02-28T00:19:15;3.47;;;1.60;;
54909;SDS011;63189;51.240;9.964;2023-02-28T00:21:40;2.78;;;1.15;;
54909;SDS011;63189;51.240;9.964;2023-02-28T00:24:06;1.85;;;1.10;;
54909;SDS011;63189;51.240;9.964;2023-02-28T00:26:32;3.90;;;1.50;;
54909;SDS011;63189;51.240;9.964;2023-02-28T00:28:57;2.90;;;1.30;;
54909;SDS011;63189;51.240;9.964;2023-02-28T00:31:23;2.33;;;1.58;;
54909;SDS011;63189;51.240;9.964;2023-02-28T00:33:48;2.13;;;1.23;;
54909;SDS011;63189;51.240;9.964;2023-02-28T00:36:15;3.00;;;1.70;;
54909;SDS011;63189;51.240;9.964;2023-02-28T00:38:41;2.65;;;1.30;;
54909;SDS011;63189;51.240;9.964;2023-02-28T00:41:06;2.53;;;1.50;;
54909;SDS011;63189;51.240;9.964;2023-02-28T00:43:33;2.25;;;1.30;;
54909;SDS011;63189;51.240;9.964;2023-02-28T00:46:00;1.70;;;1.30;;
54909;SDS011;63189;51.240;9.964;2023-02-28T00:48:27;3.75;;;1.70;;
54909;SDS011;63189;51.240;9.964;2023-02-28T00:50:52;3.47;;;1.45;;
54909;SDS011;63189;51.240;9.964;2023-02-28T00:53:18;2.97;;;1.20;;
54909;SDS011;63189;51.240;9.964;2023-02-28T00:55:43;2.10;;;1.27;;
54909;SDS011;63189;51.240;9.964;2023-02-28T00:58:08;2.08;;;1.42;;
54909;SDS011;63189;51.240;9.964;2023-02-28T01:00:34;2.55;;;1.20;;
54909;SDS011;63189;51.240;9.964;2023-02-28T01:02:59;3.08;;;1.30;;
54909;SDS011;63189;51.240;9.964;2023-02-28T01:05:24;1.92;;;1.25;;
54909;SDS011;63189;51.240;9.964;2023-02-28T01:07:50;2.45;;;1.30;;
54909;SDS011;63189;51.240;9.964;2023-02-28T01:10:15;2.42;;;1.27;;
54909;SDS011;63189;51.240;9.964;2023-02-28T01:12:41;2.58;;;1.20;;
54909;SDS011;63189;51.240;9.964;2023-02-28T01:15:06;2.83;;;1.27;;
54909;SDS011;63189;51.240;9.964;2023-02-28T01:17:32;4.75;;;1.55;;
54909;SDS011;63189;51.240;9.964;2023-02-28T01:19:57;1.90;;;1.05;;
54909;SDS011;63189;51.240;9.964;2023-02-28T01:22:22;1.80;;;1.00;;
54909;SDS011;63189;51.240;9.964;2023-02-28T01:24:48;2.20;;;1.10;;
54909;SDS011;63189;51.240;9.964;2023-02-28T01:27:13;3.05;;;1.30;;
54909;SDS011;63189;51.240;9.964;2023-02-28T01:29:39;1.90;;;1.27;;
54909;SDS011;63189;51.240;9.964;2023-02-28T01:32:04;3.47;;;1.45;;
54909;SDS011;63189;51.240;9.964;2023-02-28T01:34:29;1.98;;;1.20;;
54909;SDS011;63189;51.240;9.964;2023-02-28T01:36:55;2.95;;;1.30;;
54909;SDS011;63189;51.240;9.964;2023-02-28T01:39:23;2.10;;;1.02;;
54909;SDS011;63189;51.240;9.964;2023-02-28T01:41:49;1.63;;;0.98;;
54909;SDS011;63189;51.240;9.964;2023-02-28T01:47:17;2.63;;;1.27;;
54909;SDS011;63189;51.240;9.964;2023-02-28T01:49:42;2.35;;;0.90;;
54909;SDS011;63189;51.240;9.964;2023-02-28T01:52:08;3.05;;;1.25;;
54909;SDS011;63189;51.240;9.964;2023-02-28T01:54:39;2.42;;;1.30;;
54909;SDS011;63189;51.240;9.964;2023-02-28T01:57:06;1.60;;;1.05;;
54909;SDS011;63189;51.240;9.964;2023-02-28T01:59:45;2.13;;;1.20;;
54909;SDS011;63189;51.240;9.964;2023-02-28T02:02:17;3.40;;;1.20;;
54909;SDS011;63189;51.240;9.964;2023-02-28T02:04:53;2.15;;;0.90;;
54909;SDS011;63189;51.240;9.964;2023-02-28T02:07:26;2.40;;;1.27;;
54909;SDS011;63189;51.240;9.964;2023-02-28T02:09:59;2.78;;;1.00;;
54909;SDS011;63189;51.240;9.964;2023-02-28T02:15:10;2.78;;;1.20;;
54909;SDS011;63189;51.240;9.964;2023-02-28T02:17:47;1.38;;;1.02;;
54909;SDS011;63189;51.240;9.964;2023-02-28T02:25:56;1.13;;;1.00;;
54909;SDS011;63189;51.240;9.964;2023-02-28T02:34:14;2.50;;;0.95;;
54909;SDS011;63189;51.240;9.964;2023-02-28T02:36:54;3.65;;;1.00;;
54909;SDS011;63189;51.240;9.964;2023-02-28T02:39:31;1.48;;;0.98;;
54909;SDS011;63189;51.240;9.964;2023-02-28T02:42:05;1.42;;;0.90;;
54909;SDS011;63189;51.240;9.964;2023-02-28T02:44:40;2.00;;;1.08;;
54909;SDS011;63189;51.240;9.964;2023-02-28T02:47:12;3.28;;;1.10;;
54909;SDS011;63189;51.240;9.964;2023-02-28T02:49:42;1.50;;;0.90;;
54909;SDS011;63189;51.240;9.964;2023-02-28T02:52:15;2.72;;;0.90;;
54909;SDS011;63189;51.240;9.964;2023-02-28T02:54:44;2.00;;;1.10;;
54909;SDS011;63189;51.240;9.964;2023-02-28T02:57:16;2.10;;;1.15;;
54909;SDS011;63189;51.240;9.964;2023-02-28T02:59:48;1.23;;;0.93;;
54909;SDS011;63189;51.240;9.964;2023-02-28T03:02:16;1.60;;;1.10;;
54909;SDS011;63189;51.240;9.964;2023-02-28T03:04:46;1.50;;;0.95;;
54909;SDS011;63189;51.240;9.964;2023-02-28T03:07:16;3.22;;;1.15;;
54909;SDS011;63189;51.240;9.964;2023-02-28T03:09:49;1.35;;;0.82;;
54909;SDS011;63189;51.240;9.964;2023-02-28T03:12:16;1.75;;;1.15;;
54909;SDS011;63189;51.240;9.964;2023-02-28T03:17:25;3.70;;;1.25;;
54909;SDS011;63189;51.240;9.964;2023-02-28T03:20:13;2.60;;;1.00;;
54909;SDS011;63189;51.240;9.964;2023-02-28T03:30:52;1.58;;;0.90;;
54909;SDS011;63189;51.240;9.964;2023-02-28T03:33:24;1.70;;;0.90;;
54909;SDS011;63189;51.240;9.964;2023-02-28T03:35:55;1.95;;;1.00;;
54909;SDS011;63189;51.240;9.964;2023-02-28T03:38:38;1.90;;;1.17;;
54909;SDS011;63189;51.240;9.964;2023-02-28T03:41:13;1.00;;;0.90;;
54909;SDS011;63189;51.240;9.964;2023-02-28T03:43:44;2.28;;;1.10;;
54909;SDS011;63189;51.240;9.964;2023-02-28T03:46:15;2.85;;;0.90;;
54909;SDS011;63189;51.240;9.964;2023-02-28T03:48:51;2.83;;;1.50;;
54909;SDS011;63189;51.240;9.964;2023-02-28T03:51:22;3.20;;;1.30;;
54909;SDS011;63189;51.240;9.964;2023-02-28T03:53:52;1.75;;;1.00;;
54909;SDS011;63189;51.240;9.964;2023-02-28T03:56:23;0.85;;;0.80;;
54909;SDS011;63189;51.240;9.964;2023-02-28T03:59:06;1.50;;;0.85;;
54909;SDS011;63189;51.240;9.964;2023-02-28T04:01:39;2.88;;;1.27;;
54909;SDS011;63189;51.240;9.964;2023-02-28T04:04:07;1.58;;;1.00;;
54909;SDS011;63189;51.240;9.964;2023-02-28T04:06:34;2.25;;;0.90;;
54909;SDS011;63189;51.240;9.964;2023-02-28T04:09:00;3.35;;;1.20;;
54909;SDS011;63189;51.240;9.964;2023-02-28T04:11:29;1.65;;;1.08;;
54909;SDS011;63189;51.240;9.964;2023-02-28T04:14:07;2.13;;;1.15;;
54909;SDS011;63189;51.240;9.964;2023-02-28T04:16:34;3.08;;;1.30;;
54909;SDS011;63189;51.240;9.964;2023-02-28T04:19:04;3.28;;;1.42;;
54909;SDS011;63189;51.240;9.964;2023-02-28T04:21:32;2.22;;;1.23;;
54909;SDS011;63189;51.240;9.964;2023-02-28T04:23:59;2.42;;;1.17;;
54909;SDS011;63189;51.240;9.964;2023-02-28T04:26:31;1.50;;;1.08;;
54909;SDS011;63189;51.240;9.964;2023-02-28T04:28:57;2.38;;;1.52;;
54909;SDS011;63189;51.240;9.964;2023-02-28T04:31:23;1.50;;;1.08;;
54909;SDS011;63189;51.240;9.964;2023-02-28T04:33:48;2.88;;;1.10;;
54909;SDS011;63189;51.240;9.964;2023-02-28T04:36:14;1.88;;;1.10;;
54909;SDS011;63189;51.240;9.964;2023-02-28T04:38:42;1.80;;;1.00;;
54909;SDS011;63189;51.240;9.964;2023-02-28T04:41:09;1.92;;;1.00;;
54909;SDS011;63189;51.240;9.964;2023-02-28T04:43:34;3.13;;;1.60;;
54909;SDS011;63189;51.240;9.964;2023-02-28T04:46:00;2.28;;;1.42;;
54909;SDS011;63189;51.240;9.964;2023-02-28T04:48:28;3.05;;;1.40;;
54909;SDS011;63189;51.240;9.964;2023-02-28T04:50:55;2.72;;;1.33;;
54909;SDS011;63189;51.240;9.964;2023-02-28T04:53:25;2.67;;;1.13;;
54909;SDS011;63189;51.240;9.964;2023-02-28T04:55:53;1.77;;;1.15;;
54909;SDS011;63189;51.240;9.964;2023-02-28T04:58:18;1.58;;;1.10;;
54909;SDS011;63189;51.240;9.964;2023-02-28T05:00:43;3.17;;;1.30;;
54909;SDS011;63189;51.240;9.964;2023-02-28T05:03:09;1.98;;;1.10;;
54909;SDS011;63189;51.240;9.964;2023-02-28T05:05:34;2.72;;;1.67;;
54909;SDS011;63189;51.240;9.964;2023-02-28T05:08:00;3.25;;;1.42;;
54909;SDS011;63189;51.240;9.964;2023-02-28T05:10:25;3.63;;;1.65;;
54909;SDS011;63189;51.240;9.964;2023-02-28T05:12:50;3.05;;;1.40;;
54909;SDS011;63189;51.240;9.964;2023-02-28T05:15:16;2.13;;;1.30;;
54909;SDS011;63189;51.240;9.964;2023-02-28T05:17:42;2.30;;;1.25;;
54909;SDS011;63189;51.240;9.964;2023-02-28T05:20:08;3.08;;;1.40;;
54909;SDS011;63189;51.240;9.964;2023-02-28T05:22:36;2.92;;;1.60;;
54909;SDS011;63189;51.240;9.964;2023-02-28T05:25:02;2.80;;;1.33;;
54909;SDS011;63189;51.240;9.964;2023-02-28T05:27:29;2.70;;;1.30;;
54909;SDS011;63189;51.240;9.964;2023-02-28T05:29:55;2.33;;;1.35;;
54909;SDS011;63189;51.240;9.964;2023-02-28T05:32:20;1.65;;;1.20;;
54909;SDS011;63189;51.240;9.964;2023-02-28T05:34:46;2.33;;;1.33;;
54909;SDS011;63189;51.240;9.964;2023-02-28T05:37:12;3.42;;;1.60;;
54909;SDS011;63189;51.240;9.964;2023-02-28T05:39:39;5.82;;;1.33;;
54909;SDS011;63189;51.240;9.964;2023-02-28T05:42:04;3.10;;;1.55;;
54909;SDS011;63189;51.240;9.964;2023-02-28T05:44:30;2.72;;;1.52;;
54909;SDS011;63189;51.240;9.964;2023-02-28T05:46:55;2.83;;;1.40;;
54909;SDS011;63189;51.240;9.964;2023-02-28T05:49:20;3.13;;;1.92;;
54909;SDS011;63189;51.240;9.964;2023-02-28T05:51:46;4.93;;;2.10;;
54909;SDS011;63189;51.240;9.964;2023-02-28T05:54:11;2.33;;;1.48;;
54909;SDS011;63189;51.240;9.964;2023-02-28T05:56:36;4.03;;;1.80;;
54909;SDS011;63189;51.240;9.964;2023-02-28T05:59:04;2.85;;;1.38;;
54909;SDS011;63189;51.240;9.964;2023-02-28T06:01:31;3.42;;;1.80;;
54909;SDS011;63189;51.240;9.964;2023-02-28T06:03:58;2.70;;;1.33;;
54909;SDS011;63189;51.240;9.964;2023-02-28T06:06:24;2.50;;;1.50;;
54909;SDS011;63189;51.240;9.964;2023-02-28T06:08:50;2.90;;;1.60;;
54909;SDS011;63189;51.240;9.964;2023-02-28T06:11:15;3.53;;;1.98;;
54909;SDS011;63189;51.240;9.964;2023-02-28T06:13:40;3.75;;;1.67;;
54909;SDS011;63189;51.240;9.964;2023-02-28T06:16:07;4.10;;;1.90;;
54909;SDS011;63189;51.240;9.964;2023-02-28T06:18:34;2.78;;;1.63;;
54909;SDS011;63189;51.240;9.964;2023-02-28T06:20:59;2.25;;;1.48;;
54909;SDS011;63189;51.240;9.964;2023-02-28T06:23:24;3.45;;;1.75;;
54909;SDS011;63189;51.240;9.964;2023-02-28T06:25:50;3.03;;;1.70;;
54909;SDS011;63189;51.240;9.964;2023-02-28T06:28:15;4.90;;;1.80;;
54909;SDS011;63189;51.240;9.964;2023-02-28T06:30:41;2.58;;;1.38;;
54909;SDS011;63189;51.240;9.964;2023-02-28T06:33:06;2.20;;;1.40;;
54909;SDS011;63189;51.240;9.964;2023-02-28T06:35:31;2.30;;;1.50;;
54909;SDS011;63189;51.240;9.964;2023-02-28T06:37:57;4.18;;;1.60;;
54909;SDS011;63189;51.240;9.964;2023-02-28T06:40:22;3.22;;;1.85;;
54909;SDS011;63189;51.240;9.964;2023-02-28T06:42:48;2.63;;;1.42;;
54909;SDS011;63189;51.240;9.964;2023-02-28T06:45:13;5.25;;;2.08;;
54909;SDS011;63189;51.240;9.964;2023-02-28T06:47:39;6.00;;;1.70;;
54909;SDS011;63189;51.240;9.964;2023-02-28T06:50:06;2.00;;;1.42;;
54909;SDS011;63189;51.240;9.964;2023-02-28T06:52:35;2.97;;;1.92;;
54909;SDS011;63189;51.240;9.964;2023-02-28T06:55:04;4.88;;;2.50;;
54909;SDS011;63189;51.240;9.964;2023-02-28T06:57:31;3.13;;;1.55;;
54909;SDS011;63189;51.240;9.964;2023-02-28T06:59:58;3.55;;;2.15;;
54909;SDS011;63189;51.240;9.964;2023-02-28T07:02:24;3.63;;;2.17;;
54909;SDS011;63189;51.240;9.964;2023-02-28T07:04:50;3.55;;;1.92;;
54909;SDS011;63189;51.240;9.964;2023-02-28T07:07:15;5.05;;;2.30;;
54909;SDS011;63189;51.240;9.964;2023-02-28T07:09:41;3.42;;;2.13;;
54909;SDS011;63189;51.240;9.964;2023-02-28T07:12:06;3.75;;;1.98;;
54909;SDS011;63189;51.240;9.964;2023-02-28T07:14:31;3.83;;;2.40;;
54909;SDS011;63189;51.240;9.964;2023-02-28T07:16:57;3.97;;;2.20;;
54909;SDS011;63189;51.240;9.964;2023-02-28T07:19:22;3.65;;;1.90;;
54909;SDS011;63189;51.240;9.964;2023-02-28T07:21:47;3.25;;;1.90;;
54909;SDS011;63189;51.240;9.964;2023-02-28T07:24:12;5.15;;;2.58;;
54909;SDS011;63189;51.240;9.964;2023-02-28T07:26:40;3.33;;;1.90;;
54909;SDS011;63189;51.240;9.964;2023-02-28T07:29:06;3.38;;;1.90;;
54909;SDS011;63189;51.240;9.964;2023-02-28T07:31:31;4.78;;;1.85;;
54909;SDS011;63189;51.240;9.964;2023-02-28T07:33:57;4.30;;;2.47;;
54909;SDS011;63189;51.240;9.964;2023-02-28T07:36:22;4.97;;;2.80;;
54909;SDS011;63189;51.240;9.964;2023-02-28T07:38:48;5.53;;;2.45;;
54909;SDS011;63189;51.240;9.964;2023-02-28T07:41:15;5.75;;;3.55;;
54909;SDS011;63189;51.240;9.964;2023-02-28T07:43:42;4.97;;;2.83;;
54909;SDS011;63189;51.240;9.964;2023-02-28T07:46:08;5.53;;;2.55;;
54909;SDS011;63189;51.240;9.964;2023-02-28T07:48:35;3.60;;;2.38;;
54909;SDS011;63189;51.240;9.964;2023-02-28T07:51:01;4.68;;;2.42;;
54909;SDS011;63189;51.240;9.964;2023-02-28T07:53:28;4.88;;;2.58;;
54909;SDS011;63189;51.240;9.964;2023-02-28T07:55:56;3.65;;;2.10;;
54909;SDS011;63189;51.240;9.964;2023-02-28T07:58:23;3.17;;;2.38;;
54909;SDS011;63189;51.240;9.964;2023-02-28T08:00:49;5.80;;;2.40;;
54909;SDS011;63189;51.240;9.964;2023-02-28T08:03:14;3.28;;;2.28;;
54909;SDS011;63189;51.240;9.964;2023-02-28T08:05:40;7.38;;;2.95;;
54909;SDS011;63189;51.240;9.964;2023-02-28T08:08:06;3.00;;;2.10;;
54909;SDS011;63189;51.240;9.964;2023-02-28T08:10:32;3.38;;;2.20;;
54909;SDS011;63189;51.240;9.964;2023-02-28T08:12:58;3.60;;;2.25;;
54909;SDS011;63189;51.240;9.964;2023-02-28T08:15:23;14.48;;;2.70;;
54909;SDS011;63189;51.240;9.964;2023-02-28T08:17:48;3.00;;;1.90;;
54909;SDS011;63189;51.240;9.964;2023-02-28T08:20:13;3.40;;;2.22;;
54909;SDS011;63189;51.240;9.964;2023-02-28T08:22:39;2.50;;;1.90;;
54909;SDS011;63189;51.240;9.964;2023-02-28T08:25:04;2.55;;;1.73;;
54909;SDS011;63189;51.240;9.964;2023-02-28T08:27:32;3.60;;;1.83;;
54909;SDS011;63189;51.240;9.964;2023-02-28T08:29:57;3.88;;;2.30;;
54909;SDS011;63189;51.240;9.964;2023-02-28T08:32:22;3.78;;;2.40;;
54909;SDS011;63189;51.240;9.964;2023-02-28T08:34:48;4.25;;;2.50;;
54909;SDS011;63189;51.240;9.964;2023-02-28T08:37:13;4.18;;;2.35;;
54909;SDS011;63189;51.240;9.964;2023-02-28T08:39:38;3.80;;;2.40;;
54909;SDS011;63189;51.240;9.964;2023-02-28T08:42:04;3.63;;;2.17;;
54909;SDS011;63189;51.240;9.964;2023-02-28T08:44:29;4.13;;;2.67;;
54909;SDS011;63189;51.240;9.964;2023-02-28T08:46:55;3.72;;;2.25;;
54909;SDS011;63189;51.240;9.964;2023-02-28T08:49:20;3.70;;;2.30;;
54909;SDS011;63189;51.240;9.964;2023-02-28T08:51:45;3.03;;;2.28;;
54909;SDS011;63189;51.240;9.964;2023-02-28T08:54:10;4.75;;;2.60;;
54909;SDS011;63189;51.240;9.964;2023-02-28T08:56:41;3.17;;;2.10;;
54909;SDS011;63189;51.240;9.964;2023-02-28T08:59:08;4.78;;;2.60;;
54909;SDS011;63189;51.240;9.964;2023-02-28T09:01:34;4.82;;;2.90;;
54909;SDS011;63189;51.240;9.964;2023-02-28T09:04:00;3.60;;;2.30;;
54909;SDS011;63189;51.240;9.964;2023-02-28T09:06:27;3.60;;;2.28;;
54909;SDS011;63189;51.240;9.964;2023-02-28T09:08:52;4.95;;;2.45;;
54909;SDS011;63189;51.240;9.964;2023-02-28T09:11:21;4.05;;;2.40;;
54909;SDS011;63189;51.240;9.964;2023-02-28T09:13:47;4.75;;;2.20;;
54909;SDS011;63189;51.240;9.964;2023-02-28T09:16:13;4.38;;;2.70;;
54909;SDS011;63189;51.240;9.964;2023-02-28T09:18:41;3.50;;;2.13;;
54909;SDS011;63189;51.240;9.964;2023-02-28T09:21:07;4.28;;;2.38;;
54909;SDS011;63189;51.240;9.964;2023-02-28T09:23:34;4.75;;;2.28;;
54909;SDS011;63189;51.240;9.964;2023-02-28T09:26:03;3.05;;;1.70;;
54909;SDS011;63189;51.240;9.964;2023-02-28T09:28:29;4.40;;;2.70;;
54909;SDS011;63189;51.240;9.964;2023-02-28T09:30:54;3.50;;;2.50;;
54909;SDS011;63189;51.240;9.964;2023-02-28T09:33:20;4.32;;;2.40;;
54909;SDS011;63189;51.240;9.964;2023-02-28T09:35:47;4.03;;;2.25;;
54909;SDS011;63189;51.240;9.964;2023-02-28T09:38:13;2.83;;;1.95;;
54909;SDS011;63189;51.240;9.964;2023-02-28T09:40:48;4.03;;;2.38;;
54909;SDS011;63189;51.240;9.964;2023-02-28T09:43:16;4.30;;;2.63;;
54909;SDS011;63189;51.240;9.964;2023-02-28T09:45:52;4.95;;;2.80;;
54909;SDS011;63189;51.240;9.964;2023-02-28T09:48:27;5.18;;;2.85;;
54909;SDS011;63189;51.240;9.964;2023-02-28T09:51:04;6.45;;;3.20;;
54909;SDS011;63189;51.240;9.964;2023-02-28T09:53:37;3.58;;;2.92;;
54909;SDS011;63189;51.240;9.964;2023-02-28T10:01:00;4.15;;;2.42;;
54909;SDS011;63189;51.240;9.964;2023-02-28T10:03:42;3.85;;;2.60;;
54909;SDS011;63189;51.240;9.964;2023-02-28T10:06:19;5.68;;;3.10;;
54909;SDS011;63189;51.240;9.964;2023-02-28T10:11:32;4.80;;;2.78;;
54909;SDS011;63189;51.240;9.964;2023-02-28T10:14:04;4.50;;;3.08;;
54909;SDS011;63189;51.240;9.964;2023-02-28T10:16:45;5.03;;;3.10;;
54909;SDS011;63189;51.240;9.964;2023-02-28T10:19:19;5.75;;;3.03;;
54909;SDS011;63189;51.240;9.964;2023-02-28T10:24:42;4.28;;;2.67;;
54909;SDS011;63189;51.240;9.964;2023-02-28T10:29:43;3.40;;;2.20;;
54909;SDS011;63189;51.240;9.964;2023-02-28T10:32:12;7.00;;;3.17;;
54909;SDS011;63189;51.240;9.964;2023-02-28T10:34:41;3.72;;;2.70;;
54909;SDS011;63189;51.240;9.964;2023-02-28T10:37:07;6.28;;;2.97;;
54909;SDS011;63189;51.240;9.964;2023-02-28T10:39:42;4.53;;;3.00;;
54909;SDS011;63189;51.240;9.964;2023-02-28T10:47:48;7.32;;;2.70;;
54909;SDS011;63189;51.240;9.964;2023-02-28T10:50:27;7.53;;;3.72;;
54909;SDS011;63189;51.240;9.964;2023-02-28T10:52:54;5.15;;;3.22;;
54909;SDS011;63189;51.240;9.964;2023-02-28T10:55:23;5.60;;;3.30;;
54909;SDS011;63189;51.240;9.964;2023-02-28T10:57:50;4.80;;;2.17;;
54909;SDS011;63189;51.240;9.964;2023-02-28T11:00:18;4.35;;;2.97;;
54909;SDS011;63189;51.240;9.964;2023-02-28T11:02:48;4.07;;;2.35;;
54909;SDS011;63189;51.240;9.964;2023-02-28T11:10:37;5.53;;;3.05;;
54909;SDS011;63189;51.240;9.964;2023-02-28T11:13:03;4.88;;;3.20;;
54909;SDS011;63189;51.240;9.964;2023-02-28T11:15:30;5.53;;;2.90;;
54909;SDS011;63189;51.240;9.964;2023-02-28T11:18:01;4.55;;;2.95;;
54909;SDS011;63189;51.240;9.964;2023-02-28T11:20:32;4.40;;;3.05;;
54909;SDS011;63189;51.240;9.964;2023-02-28T11:22:58;5.38;;;3.05;;
54909;SDS011;63189;51.240;9.964;2023-02-28T11:25:38;4.95;;;2.65;;
54909;SDS011;63189;51.240;9.964;2023-02-28T11:28:04;6.55;;;3.20;;
54909;SDS011;63189;51.240;9.964;2023-02-28T11:30:49;5.65;;;2.85;;
54909;SDS011;63189;51.240;9.964;2023-02-28T11:33:47;4.38;;;2.88;;
54909;SDS011;63189;51.240;9.964;2023-02-28T11:36:24;3.70;;;2.85;;
54909;SDS011;63189;51.240;9.964;2023-02-28T11:38:53;4.75;;;3.28;;
54909;SDS011;63189;51.240;9.964;2023-02-28T11:46:41;6.68;;;3.60;;
54909;SDS011;63189;51.240;9.964;2023-02-28T11:54:47;4.47;;;2.92;;
54909;SDS011;63189;51.240;9.964;2023-02-28T11:57:20;3.63;;;2.80;;
54909;SDS011;63189;51.240;9.964;2023-02-28T12:06:12;4.70;;;2.92;;
54909;SDS011;63189;51.240;9.964;2023-02-28T12:17:08;5.30;;;2.92;;
54909;SDS011;63189;51.240;9.964;2023-02-28T12:27:38;5.20;;;3.42;;
54909;SDS011;63189;51.240;9.964;2023-02-28T12:30:28;4.13;;;2.80;;
54909;SDS011;63189;51.240;9.964;2023-02-28T12:33:04;5.32;;;3.08;;
54909;SDS011;63189;51.240;9.964;2023-02-28T12:35:33;3.60;;;2.53;;
54909;SDS011;63189;51.240;9.964;2023-02-28T12:38:22;4.85;;;3.38;;
54909;SDS011;63189;51.240;9.964;2023-02-28T12:40:52;4.97;;;3.10;;
54909;SDS011;63189;51.240;9.964;2023-02-28T12:43:22;4.25;;;2.70;;
54909;SDS011;63189;51.240;9.964;2023-02-28T12:45:57;4.53;;;2.80;;
54909;SDS011;63189;51.240;9.964;2023-02-28T12:48:31;5.10;;;2.88;;
54909;SDS011;63189;51.240;9.964;2023-02-28T12:51:04;4.55;;;2.90;;
54909;SDS011;63189;51.240;9.964;2023-02-28T12:53:37;3.92;;;3.00;;
54909;SDS011;63189;51.240;9.964;2023-02-28T12:56:29;4.38;;;2.70;;
54909;SDS011;63189;51.240;9.964;2023-02-28T12:59:07;4.32;;;3.58;;
54909;SDS011;63189;51.240;9.964;2023-02-28T13:10:17;4.35;;;2.90;;
54909;SDS011;63189;51.240;9.964;2023-02-28T13:12:50;4.00;;;2.45;;
54909;SDS011;63189;51.240;9.964;2023-02-28T13:15:22;4.05;;;2.80;;
54909;SDS011;63189;51.240;9.964;2023-02-28T13:17:52;3.38;;;2.60;;
54909;SDS011;63189;51.240;9.964;2023-02-28T13:20:24;5.80;;;3.80;;
54909;SDS011;63189;51.240;9.964;2023-02-28T13:22:52;7.47;;;3.40;;
54909;SDS011;63189;51.240;9.964;2023-02-28T13:27:48;8.82;;;4.85;;
54909;SDS011;63189;51.240;9.964;2023-02-28T13:33:27;4.47;;;3.20;;
54909;SDS011;63189;51.240;9.964;2023-02-28T13:38:50;6.03;;;3.50;;
54909;SDS011;63189;51.240;9.964;2023-02-28T13:44:10;4.95;;;3.80;;
54909;SDS011;63189;51.240;9.964;2023-02-28T13:57:25;5.57;;;3.13;;
54909;SDS011;63189;51.240;9.964;2023-02-28T14:00:30;5.70;;;3.78;;
54909;SDS011;63189;51.240;9.964;2023-02-28T14:03:30;4.53;;;3.35;;
54909;SDS011;63189;51.240;9.964;2023-02-28T14:08:58;6.10;;;4.03;;
54909;SDS011;63189;51.240;9.964;2023-02-28T14:11:29;6.03;;;3.85;;
54909;SDS011;63189;51.240;9.964;2023-02-28T14:13:57;6.43;;;3.17;;
54909;SDS011;63189;51.240;9.964;2023-02-28T14:16:23;5.28;;;3.28;;
54909;SDS011;63189;51.240;9.964;2023-02-28T14:27:11;5.70;;;3.78;;
54909;SDS011;63189;51.240;9.964;2023-02-28T14:38:42;8.77;;;5.75;;
54909;SDS011;63189;51.240;9.964;2023-02-28T14:41:28;6.53;;;4.20;;
54909;SDS011;63189;51.240;9.964;2023-02-28T14:46:53;10.82;;;4.25;;
54909;SDS011;63189;51.240;9.964;2023-02-28T14:49:28;6.45;;;3.67;;
54909;SDS011;63189;51.240;9.964;2023-02-28T14:54:40;5.22;;;3.45;;
54909;SDS011;63189;51.240;9.964;2023-02-28T14:57:06;7.18;;;4.80;;
54909;SDS011;63189;51.240;9.964;2023-02-28T14:59:45;6.25;;;3.75;;
54909;SDS011;63189;51.240;9.964;2023-02-28T15:02:18;6.07;;;4.03;;
54909;SDS011;63189;51.240;9.964;2023-02-28T15:04:56;4.82;;;3.17;;
54909;SDS011;63189;51.240;9.964;2023-02-28T15:07:23;5.00;;;3.78;;
54909;SDS011;63189;51.240;9.964;2023-02-28T15:12:59;5.57;;;3.92;;
54909;SDS011;63189;51.240;9.964;2023-02-28T15:21:16;8.02;;;4.57;;
54909;SDS011;63189;51.240;9.964;2023-02-28T15:24:02;7.32;;;4.55;;
54909;SDS011;63189;51.240;9.964;2023-02-28T15:26:39;7.65;;;5.05;;
54909;SDS011;63189;51.240;9.964;2023-02-28T15:29:16;5.28;;;3.97;;
54909;SDS011;63189;51.240;9.964;2023-02-28T15:31:48;9.77;;;5.50;;
54909;SDS011;63189;51.240;9.964;2023-02-28T15:34:22;4.05;;;3.10;;
54909;SDS011;63189;51.240;9.964;2023-02-28T15:37:00;6.82;;;4.55;;
54909;SDS011;63189;51.240;9.964;2023-02-28T15:39:26;5.88;;;3.95;;
54909;SDS011;63189;51.240;9.964;2023-02-28T15:42:09;5.28;;;3.90;;
54909;SDS011;63189;51.240;9.964;2023-02-28T15:44:36;9.77;;;5.13;;
54909;SDS011;63189;51.240;9.964;2023-02-28T15:47:14;8.35;;;4.78;;
54909;SDS011;63189;51.240;9.964;2023-02-28T15:49:47;5.40;;;3.70;;
54909;SDS011;63189;51.240;9.964;2023-02-28T15:52:21;6.72;;;3.92;;
54909;SDS011;63189;51.240;9.964;2023-02-28T15:54:52;5.82;;;3.75;;
54909;SDS011;63189;51.240;9.964;2023-02-28T15:57:22;8.43;;;4.15;;
54909;SDS011;63189;51.240;9.964;2023-02-28T15:59:56;4.82;;;2.85;;
54909;SDS011;63189;51.240;9.964;2023-02-28T16:07:52;8.00;;;3.90;;
54909;SDS011;63189;51.240;9.964;2023-02-28T16:10:18;7.45;;;3.50;;
54909;SDS011;63189;51.240;9.964;2023-02-28T16:12:46;6.53;;;4.28;;
54909;SDS011;63189;51.240;9.964;2023-02-28T16:15:17;7.28;;;4.63;;
54909;SDS011;63189;51.240;9.964;2023-02-28T16:17:45;4.72;;;3.05;;
54909;SDS011;63189;51.240;9.964;2023-02-28T16:20:15;5.72;;;3.60;;
54909;SDS011;63189;51.240;9.964;2023-02-28T16:22:44;7.07;;;4.40;;
54909;SDS011;63189;51.240;9.964;2023-02-28T16:25:17;5.40;;;3.47;;
54909;SDS011;63189;51.240;9.964;2023-02-28T16:27:45;6.93;;;2.88;;
54909;SDS011;63189;51.240;9.964;2023-02-28T16:30:24;6.82;;;3.55;;
54909;SDS011;63189;51.240;9.964;2023-02-28T16:32:52;6.32;;;3.22;;
54909;SDS011;63189;51.240;9.964;2023-02-28T16:35:19;8.18;;;5.20;;
54909;SDS011;63189;51.240;9.964;2023-02-28T16:37:45;10.32;;;5.55;;
54909;SDS011;63189;51.240;9.964;2023-02-28T16:40:15;9.82;;;4.90;;
54909;SDS011;63189;51.240;9.964;2023-02-28T16:42:43;8.30;;;5.07;;
54909;SDS011;63189;51.240;9.964;2023-02-28T16:45:14;8.40;;;4.10;;
54909;SDS011;63189;51.240;9.964;2023-02-28T16:47:41;10.05;;;5.78;;
54909;SDS011;63189;51.240;9.964;2023-02-28T16:50:40;9.13;;;5.47;;
54909;SDS011;63189;51.240;9.964;2023-02-28T16:52:59;10.15;;;5.38;;
54909;SDS011;63189;51.240;9.964;2023-02-28T16:55:24;11.25;;;7.07;;
54909;SDS011;63189;51.240;9.964;2023-02-28T16:57:54;8.75;;;5.68;;
54909;SDS011;63189;51.240;9.964;2023-02-28T17:00:22;11.48;;;6.43;;
54909;SDS011;63189;51.240;9.964;2023-02-28T17:02:48;7.72;;;6.10;;
54909;SDS011;63189;51.240;9.964;2023-02-28T17:05:13;7.95;;;5.32;;
54909;SDS011;63189;51.240;9.964;2023-02-28T17:07:40;8.82;;;5.95;;
54909;SDS011;63189;51.240;9.964;2023-02-28T17:10:25;10.95;;;6.63;;
54909;SDS011;63189;51.240;9.964;2023-02-28T17:12:51;15.77;;;7.15;;
54909;SDS011;63189;51.240;9.964;2023-02-28T17:15:17;16.48;;;7.70;;
54909;SDS011;63189;51.240;9.964;2023-02-28T17:17:44;15.00;;;6.57;;
54909;SDS011;63189;51.240;9.964;2023-02-28T17:20:12;10.05;;;6.00;;
54909;SDS011;63189;51.240;9.964;2023-02-28T17:22:39;8.50;;;6.28;;
54909;SDS011;63189;51.240;9.964;2023-02-28T17:25:04;12.18;;;6.60;;
54909;SDS011;63189;51.240;9.964;2023-02-28T17:27:31;9.18;;;5.97;;
54909;SDS011;63189;51.240;9.964;2023-02-28T17:29:57;12.38;;;5.18;;
54909;SDS011;63189;51.240;9.964;2023-02-28T17:32:22;6.53;;;4.68;;
54909;SDS011;63189;51.240;9.964;2023-02-28T17:34:48;7.07;;;4.97;;
54909;SDS011;63189;51.240;9.964;2023-02-28T17:37:14;7.95;;;4.70;;